Time;durP1;ratioP1;P1;durP2;ratioP2;P2;SDS_P1;SDS_P2;PMS_P1;PMS_P2;Temp;Humidity;BMP_temperature;BMP_pressure;BME280_temperature;BME280_humidity;BME280_pressure;Samples;Min_cycle;Max_cycle;Signal;HPM_P1;HPM_P2
2021/09/26 00:00:18;;;;;;;49.67;40.10;;;;;;;15.14;100.00;99428.00;2049452;29;20246;-82
2021/09/26 00:01:19;;;;;;;52.50;41.30;;;;;;;15.15;100.00;99437.66;2049070;29;20982;-82
2021/09/26 00:02:22;;;;;;;54.57;40.80;;;;;;;15.18;100.00;99428.94;2041211;29;20911;-82
2021/09/26 00:03:25;;;;;;;54.00;40.77;;;;;;;15.18;100.00;99426.25;2050511;29;20957;-82
2021/09/26 00:04:26;;;;;;;53.70;40.43;;;;;;;15.21;100.00;99431.00;2050820;29;20481;-82
2021/09/26 00:05:28;;;;;;;52.73;41.07;;;;;;;15.23;100.00;99434.16;2042767;29;20447;-82
2021/09/26 00:06:28;;;;;;;48.73;38.87;;;;;;;15.23;100.00;99423.41;2050857;29;20194;-82
2021/09/26 00:07:30;;;;;;;46.43;39.07;;;;;;;15.24;100.00;99427.69;2051433;29;20457;-82
2021/09/26 00:08:31;;;;;;;47.53;38.67;;;;;;;15.25;100.00;99429.25;2050844;29;20297;-82
2021/09/26 00:09:32;;;;;;;53.13;41.07;;;;;;;15.23;100.00;99423.41;2051012;29;20430;-82
2021/09/26 00:10:35;;;;;;;48.37;39.17;;;;;;;15.24;100.00;99429.59;2050897;29;20206;-82
2021/09/26 00:11:40;;;;;;;50.87;40.17;;;;;;;15.26;100.00;99428.16;2042032;29;20839;-82
2021/09/26 00:12:43;;;;;;;50.87;39.73;;;;;;;15.25;100.00;99431.16;2051168;29;20418;-82
2021/09/26 00:13:44;;;;;;;57.23;42.07;;;;;;;15.23;100.00;99426.09;2051438;29;20437;-82
2021/09/26 00:14:46;;;;;;;55.33;42.63;;;;;;;15.26;100.00;99428.16;2050626;29;20445;-82
2021/09/26 00:15:46;;;;;;;48.63;39.80;;;;;;;15.24;100.00;99427.69;2051074;29;20198;-82
2021/09/26 00:16:48;;;;;;;52.27;40.70;;;;;;;15.27;100.00;99434.31;2050596;29;20466;-82
2021/09/26 00:17:51;;;;;;;48.27;39.90;;;;;;;15.25;100.00;99426.56;2050949;29;20198;-82
2021/09/26 00:18:53;;;;;;;46.43;39.30;;;;;;;15.27;100.00;99432.41;2051620;29;20441;-82
2021/09/26 00:19:54;;;;;;;45.27;37.40;;;;;;;15.25;100.00;99431.16;2050587;29;20450;-82
2021/09/26 00:20:56;;;;;;;47.20;39.77;;;;;;;15.25;100.00;99431.94;2042839;29;20479;-82
2021/09/26 00:21:57;;;;;;;47.43;39.13;;;;;;;15.24;100.00;99425.00;2042773;29;20213;-82
2021/09/26 00:22:58;;;;;;;46.77;38.00;;;;;;;15.22;100.00;99421.06;2042749;29;20461;-82
2021/09/26 00:24:00;;;;;;;45.23;37.77;;;;;;;15.22;100.00;99427.22;2050864;29;20477;-82
2021/09/26 00:25:05;;;;;;;47.30;37.87;;;;;;;15.19;100.00;99417.06;2051225;29;20273;-82
2021/09/26 00:26:07;;;;;;;48.30;37.97;;;;;;;15.18;100.00;99426.25;2051482;29;20430;-81
2021/09/26 00:27:10;;;;;;;48.37;37.27;;;;;;;15.17;100.00;99423.88;2051299;29;20465;-82
2021/09/26 00:28:12;;;;;;;40.90;36.53;;;;;;;15.16;100.00;99427.69;2051181;29;20434;-82
2021/09/26 00:29:13;;;;;;;46.53;38.17;;;;;;;15.13;100.00;99421.06;2051340;29;20924;-82
2021/09/26 00:30:16;;;;;;;43.63;37.17;;;;;;;15.14;100.00;99424.53;2050545;29;20842;-82
2021/09/26 00:31:16;;;;;;;42.83;35.60;;;;;;;15.12;100.00;99430.22;2050595;29;20572;-82
2021/09/26 00:32:20;;;;;;;45.93;36.37;;;;;;;15.09;100.00;99428.16;2051295;29;20536;-82
2021/09/26 00:33:23;;;;;;;43.20;34.47;;;;;;;15.09;100.00;99420.09;2051236;28;20214;-82
2021/09/26 00:34:25;;;;;;;38.47;33.93;;;;;;;15.06;100.00;99415.38;2051551;28;20524;-82
2021/09/26 00:35:27;;;;;;;41.60;34.83;;;;;;;15.05;100.00;99421.84;2050480;29;20545;-82
2021/09/26 00:36:28;;;;;;;37.30;33.30;;;;;;;15.04;100.00;99422.97;2042593;29;20447;-82
2021/09/26 00:37:29;;;;;;;45.23;36.93;;;;;;;15.01;100.00;99423.56;2050696;29;20460;-82
2021/09/26 00:38:31;;;;;;;52.57;39.80;;;;;;;15.01;100.00;99425.47;2051158;28;20430;-82
2021/09/26 00:39:32;;;;;;;50.80;39.67;;;;;;;15.02;100.00;99427.03;2050752;29;20696;-82
2021/09/26 00:40:34;;;;;;;51.73;39.67;;;;;;;15.05;100.00;99424.53;2050542;29;20783;-82
2021/09/26 00:41:35;;;;;;;50.67;40.77;;;;;;;15.04;100.00;99425.66;2050513;29;20198;-82
2021/09/26 00:42:36;;;;;;;48.27;39.47;;;;;;;15.06;100.00;99430.69;2050710;29;20437;-82
2021/09/26 00:43:38;;;;;;;52.43;41.77;;;;;;;15.05;100.00;99424.53;2050440;29;20497;-82
2021/09/26 00:44:39;;;;;;;49.20;40.67;;;;;;;15.04;100.00;99422.97;2042443;29;20211;-82
2021/09/26 00:45:41;;;;;;;45.50;38.77;;;;;;;15.06;100.00;99426.13;2050582;29;20489;-82
2021/09/26 00:46:42;;;;;;;48.63;39.27;;;;;;;15.05;100.00;99419.16;2051042;29;20190;-82
2021/09/26 00:47:45;;;;;;;47.80;39.37;;;;;;;15.06;100.00;99423.44;2051221;29;20438;-81
2021/09/26 00:48:48;;;;;;;47.13;37.07;;;;;;;15.05;100.00;99421.84;2051134;29;20435;-82
2021/09/26 00:49:49;;;;;;;43.37;37.47;;;;;;;15.05;100.00;99423.75;2050460;29;20454;-82
2021/09/26 00:50:50;;;;;;;43.40;35.67;;;;;;;15.03;100.00;99418.69;2050495;29;20493;-82
2021/09/26 00:51:52;;;;;;;42.60;35.93;;;;;;;15.00;100.00;99422.00;2050968;29;20504;-82
2021/09/26 00:52:53;;;;;;;43.03;36.13;;;;;;;15.01;100.00;99423.56;2051412;29;20723;-82
2021/09/26 00:53:55;;;;;;;47.27;37.70;;;;;;;14.99;100.00;99425.78;2051008;29;20843;-82
2021/09/26 00:54:56;;;;;;;46.50;36.57;;;;;;;14.97;100.00;99428.00;2050352;29;20191;-82
2021/09/26 00:55:58;;;;;;;46.67;37.00;;;;;;;14.96;100.00;99432.59;2050818;29;20433;-82
2021/09/26 00:56:59;;;;;;;47.33;38.53;;;;;;;14.94;100.00;99428.63;2051008;28;20245;-82
2021/09/26 00:58:01;;;;;;;54.07;39.37;;;;;;;14.96;100.00;99429.13;2051115;28;20430;-82
2021/09/26 00:59:02;;;;;;;49.23;39.60;;;;;;;14.97;100.00;99434.16;2050266;29;20262;-82
2021/09/26 01:00:05;;;;;;;50.83;41.03;;;;;;;14.99;100.00;99423.91;2050414;29;20485;-82
2021/09/26 01:01:06;;;;;;;48.07;40.47;;;;;;;14.99;100.00;99421.19;2050455;29;20202;-82
2021/09/26 01:02:08;;;;;;;45.77;38.70;;;;;;;15.00;100.00;99424.69;2050223;29;20964;-81
2021/09/26 01:03:09;;;;;;;48.90;38.53;;;;;;;14.98;100.00;99414.25;2050662;29;20703;-82
2021/09/26 01:04:13;;;;;;;44.27;37.77;;;;;;;15.01;100.00;99418.19;2041873;29;20497;-82
2021/09/26 01:05:14;;;;;;;57.47;39.37;;;;;;;14.99;100.00;99421.19;2050614;29;20449;-82
2021/09/26 01:06:26;;;;;;;45.93;39.30;;;;;;;15.00;100.00;99416.63;2050328;29;20477;-81
2021/09/26 01:07:31;;;;;;;44.53;37.20;;;;;;;15.01;100.00;99417.41;2050692;29;20924;-82
2021/09/26 01:08:43;;;;;;;49.40;39.27;;;;;;;14.99;100.00;99423.91;2050263;29;20871;-82
2021/09/26 01:09:52;;;;;;;47.00;37.63;;;;;;;14.97;100.00;99422.63;2050268;29;20454;-82
2021/09/26 01:10:59;;;;;;;41.70;36.63;;;;;;;14.98;100.00;99424.22;2043446;29;21021;-81
2021/09/26 01:12:05;;;;;;;46.23;36.73;;;;;;;14.94;100.00;99424.06;2050632;29;21071;-82
2021/09/26 01:13:18;;;;;;;45.73;36.90;;;;;;;14.95;100.00;99432.91;2049905;29;20460;-82
2021/09/26 01:14:24;;;;;;;51.30;38.53;;;;;;;14.95;100.00;99430.22;2050555;28;20411;-82
2021/09/26 01:15:34;;;;;;;47.97;38.23;;;;;;;14.93;100.00;99427.03;2050919;29;20778;-82
2021/09/26 01:16:39;;;;;;;47.23;38.57;;;;;;;14.95;100.00;99430.22;2050313;29;20879;-82
2021/09/26 01:17:43;;;;;;;53.20;42.17;;;;;;;14.92;100.00;99431.63;2050323;29;20445;-82
2021/09/26 01:18:52;;;;;;;47.17;39.37;;;;;;;14.92;100.00;99428.16;2050142;29;20450;-81
2021/09/26 01:20:13;;;;;;;51.30;38.70;;;;;;;14.93;100.00;99433.22;2043242;29;20443;-82
2021/09/26 01:21:22;;;;;;;42.23;36.87;;;;;;;14.94;100.00;99434.00;2052743;28;20548;-82
2021/09/26 01:22:35;;;;;;;46.00;37.70;;;;;;;14.93;100.00;99435.09;2050247;29;20933;-82
2021/09/26 01:24:21;;;;;;;47.08;37.83;;;;;;;14.92;100.00;99441.59;2050684;29;20909;-82
2021/09/26 01:25:39;;;;;;;47.37;36.50;;;;;;;14.90;100.00;99433.06;2050041;29;20206;-82
2021/09/26 01:26:49;;;;;;;46.03;37.37;;;;;;;14.90;100.00;99433.06;2050532;29;20418;-82
2021/09/26 01:28:12;;;;;;;47.63;38.23;;;;;;;14.86;100.00;99426.75;2050045;29;20434;-82
2021/09/26 01:29:28;;;;;;;51.40;39.60;;;;;;;14.90;100.00;99428.47;2050893;29;20402;-82
2021/09/26 01:30:36;;;;;;;47.97;39.43;;;;;;;14.90;100.00;99427.69;2050767;29;20457;-82
2021/09/26 01:31:41;;;;;;;49.93;39.97;;;;;;;14.91;100.00;99432.75;2050079;29;20573;-82
2021/09/26 01:32:43;;;;;;;46.83;38.37;;;;;;;14.91;100.00;99426.56;2050341;29;20443;-82
2021/09/26 01:33:47;;;;;;;48.30;38.77;;;;;;;14.91;100.00;99423.88;2050773;29;20438;-82
2021/09/26 01:34:50;;;;;;;51.10;40.77;;;;;;;14.92;100.00;99414.72;2050172;29;20468;-82
2021/09/26 01:35:59;;;;;;;47.73;38.73;;;;;;;14.96;100.00;99432.59;2050364;29;20434;-82
2021/09/26 01:37:03;;;;;;;46.60;38.87;;;;;;;14.98;100.00;99424.22;2050717;29;20414;-82
2021/09/26 01:38:09;;;;;;;50.30;40.10;;;;;;;14.94;100.00;99418.69;2050198;29;20933;-82
2021/09/26 01:39:14;;;;;;;47.50;37.88;;;;;;;14.94;100.00;99420.56;2050053;29;20454;-82
2021/09/26 01:40:20;;;;;;;46.30;38.30;;;;;;;14.92;100.00;99422.78;2050349;29;20575;-82
2021/09/26 01:41:30;;;;;;;48.57;38.27;;;;;;;14.90;100.00;99428.47;2050089;29;20438;-82
2021/09/26 01:42:35;;;;;;;45.93;36.60;;;;;;;14.91;100.00;99423.88;2043293;29;20490;-82
2021/09/26 01:43:40;;;;;;;42.90;36.93;;;;;;;14.91;100.00;99421.19;2049986;29;20936;-82
2021/09/26 01:44:47;;;;;;;42.22;36.85;;;;;;;14.91;100.00;99423.88;2050113;29;20924;-82
2021/09/26 01:45:52;;;;;;;48.53;37.00;;;;;;;14.87;100.00;99428.31;2050190;29;20285;-82
2021/09/26 01:46:55;;;;;;;52.33;38.13;;;;;;;14.87;100.00;99431.00;2050063;29;20810;-82
2021/09/26 01:48:00;;;;;;;51.07;38.67;;;;;;;14.84;100.00;99426.25;2050775;29;20458;-82
2021/09/26 01:49:05;;;;;;;47.50;38.13;;;;;;;14.84;100.00;99437.00;2050673;28;20409;-82
2021/09/26 01:50:10;;;;;;;46.00;37.07;;;;;;;14.84;100.00;99439.69;2049864;29;20446;-82
2021/09/26 01:51:13;;;;;;;45.17;36.72;;;;;;;14.83;100.00;99438.88;2042438;29;20447;-82
2021/09/26 01:52:16;;;;;;;49.95;39.20;;;;;;;14.82;100.00;99433.84;2042146;29;20230;-82
2021/09/26 01:53:19;;;;;;;45.73;39.47;;;;;;;14.82;100.00;99436.53;2042387;29;20207;-82
2021/09/26 01:54:20;;;;;;;43.23;36.57;;;;;;;14.82;100.00;99433.84;2041881;29;20469;-82
2021/09/26 01:55:24;;;;;;;49.60;38.55;;;;;;;14.82;100.00;99439.22;2042277;29;20443;-82
2021/09/26 01:56:27;;;;;;;49.03;37.53;;;;;;;14.82;100.00;99439.22;2050056;29;20668;-82
2021/09/26 01:57:29;;;;;;;49.75;39.17;;;;;;;14.81;100.00;99437.63;2050786;29;20477;-82
2021/09/26 01:58:31;;;;;;;44.03;36.77;;;;;;;14.81;100.00;99440.31;2050764;28;20224;-82
2021/09/26 01:59:34;;;;;;;51.57;37.90;;;;;;;14.81;100.00;99440.31;2050586;29;20438;-82
2021/09/26 02:00:39;;;;;;;47.03;38.43;;;;;;;14.78;100.00;99430.22;2049834;29;20437;-82
2021/09/26 02:01:43;;;;;;;44.63;37.97;;;;;;;14.79;100.00;99434.47;2042337;29;20822;-82
2021/09/26 02:02:48;;;;;;;42.87;38.17;;;;;;;14.79;100.00;99437.94;2049812;29;20296;-82
2021/09/26 02:03:52;;;;;;;44.60;37.00;;;;;;;14.77;100.00;99429.44;2049981;29;20446;-82
2021/09/26 02:04:59;;;;;;;43.37;37.17;;;;;;;14.79;100.00;99442.53;2042269;29;21032;-82
2021/09/26 02:06:02;;;;;;;45.03;37.05;;;;;;;14.72;100.00;99428.78;2042802;29;20470;-82
2021/09/26 02:07:02;;;;;;;43.53;36.60;;;;;;;14.77;100.00;99436.66;2042156;29;20303;-82
2021/09/26 02:08:06;;;;;;;44.13;37.00;;;;;;;14.77;100.00;99444.72;2041875;29;20525;-82
2021/09/26 02:09:11;;;;;;;45.80;38.57;;;;;;;14.76;100.00;99443.94;2050020;29;20225;-82
2021/09/26 02:10:15;;;;;;;44.72;37.60;;;;;;;14.75;100.00;99441.56;2050706;29;20398;-82
2021/09/26 02:11:17;;;;;;;46.67;39.30;;;;;;;14.76;100.00;99451.19;2049752;29;20205;-82
2021/09/26 02:12:18;;;;;;;49.90;37.92;;;;;;;14.76;100.00;99440.47;2041888;29;20482;-82
2021/09/26 02:13:21;;;;;;;49.90;38.73;;;;;;;14.76;100.00;99448.50;2049970;29;20197;-82
2021/09/26 02:14:22;;;;;;;47.88;40.03;;;;;;;14.76;100.00;99448.50;2050079;29;20221;-82
2021/09/26 02:15:25;;;;;;;48.47;39.87;;;;;;;14.77;100.00;99455.47;2049927;29;20289;-82
2021/09/26 02:16:26;;;;;;;47.50;40.15;;;;;;;14.79;100.00;99453.28;2049820;29;20198;-82
2021/09/26 02:17:35;;;;;;;55.87;41.17;;;;;;;14.79;100.00;99454.06;2041753;29;20310;-82
2021/09/26 02:18:37;;;;;;;50.65;41.67;;;;;;;14.79;100.00;99453.28;2050068;29;20174;-82
2021/09/26 02:19:38;;;;;;;49.37;40.00;;;;;;;14.79;100.00;99451.38;2050500;29;20205;-82
2021/09/26 02:20:40;;;;;;;53.87;40.47;;;;;;;14.81;100.00;99451.06;2049749;29;20442;-82
2021/09/26 02:21:42;;;;;;;52.03;41.07;;;;;;;14.84;100.00;99453.91;2041585;29;20447;-82
2021/09/26 02:22:44;;;;;;;54.08;40.63;;;;;;;14.88;100.00;99451.41;2041882;29;20812;-82
2021/09/26 02:23:47;;;;;;;47.00;38.95;;;;;;;14.87;100.00;99447.91;2049887;29;20297;-82
2021/09/26 02:24:48;;;;;;;48.07;39.90;;;;;;;14.89;100.00;99450.28;2050575;28;20217;-82
2021/09/26 02:25:51;;;;;;;52.00;39.67;;;;;;;14.87;100.00;99449.81;2049085;28;20446;-82
2021/09/26 02:26:52;;;;;;;49.65;39.60;;;;;;;14.86;100.00;99448.25;2049674;29;20206;-82
2021/09/26 02:27:54;;;;;;;48.43;39.73;;;;;;;14.87;100.00;99445.22;2050179;29;20269;-82
2021/09/26 02:28:56;;;;;;;50.28;39.03;;;;;;;14.87;100.00;99441.75;2050542;28;20194;-82
2021/09/26 02:29:58;;;;;;;45.47;37.80;;;;;;;14.87;100.00;99447.13;2050823;28;20195;-82
2021/09/26 02:31:06;;;;;;;50.08;38.42;;;;;;;14.85;100.00;99446.63;2050298;29;20241;-82
2021/09/26 02:32:08;;;;;;;43.47;38.47;;;;;;;14.82;100.00;99447.28;2050192;29;20199;-82
2021/09/26 02:33:12;;;;;;;42.90;37.33;;;;;;;14.80;100.00;99439.53;2049790;29;20433;-82
2021/09/26 02:34:12;;;;;;;45.20;38.42;;;;;;;14.78;100.00;99443.66;2049595;29;20461;-82
2021/09/26 02:35:15;;;;;;;46.60;38.30;;;;;;;14.74;100.00;99446.16;2041659;29;20203;-82
2021/09/26 02:36:16;;;;;;;48.08;37.63;;;;;;;14.70;100.00;99443.31;2041860;29;20258;-82
2021/09/26 02:37:18;;;;;;;48.90;38.17;;;;;;;14.67;100.00;99445.81;2041769;29;20195;-81
2021/09/26 02:38:19;;;;;;;44.30;37.80;;;;;;;14.63;100.00;99444.88;2049666;29;20657;-82
2021/09/26 02:39:24;;;;;;;44.90;38.23;;;;;;;14.59;100.00;99444.69;2050242;29;20584;-82
2021/09/26 02:40:25;;;;;;;41.28;36.47;;;;;;;14.58;100.00;99453.06;2050236;29;20434;-82
2021/09/26 02:41:33;;;;;;;46.57;37.50;;;;;;;14.52;100.00;99439.00;2050422;29;20202;-82
2021/09/26 02:42:40;;;;;;;45.92;38.13;;;;;;;14.50;100.00;99443.88;2049199;29;20827;-82
2021/09/26 02:43:45;;;;;;;47.00;39.13;;;;;;;14.46;100.00;99447.50;2049545;29;20210;-82
2021/09/26 02:44:51;;;;;;;50.60;39.25;;;;;;;14.41;100.00;99446.50;2049456;29;20458;-82
2021/09/26 02:45:59;;;;;;;47.90;37.83;;;;;;;14.36;100.00;99451.25;2049667;29;20171;-82
2021/09/26 02:47:03;;;;;;;43.63;38.53;;;;;;;14.32;100.00;99451.06;2050202;29;20417;-82
2021/09/26 02:48:07;;;;;;;46.30;38.95;;;;;;;14.29;100.00;99456.28;2050275;29;20713;-82
2021/09/26 02:49:09;;;;;;;46.30;37.80;;;;;;;14.25;100.00;99464.16;2049444;29;20260;-82
2021/09/26 02:50:11;;;;;;;49.85;38.38;;;;;;;14.20;100.00;99463.50;2049565;29;20225;-82
2021/09/26 02:51:12;;;;;;;47.28;39.22;;;;;;;14.15;100.00;99454.47;2049969;29;20567;-82
2021/09/26 02:52:14;;;;;;;47.17;38.90;;;;;;;14.12;100.00;99447.06;2041536;29;20557;-82
2021/09/26 02:53:16;;;;;;;48.75;38.72;;;;;;;14.10;100.00;99457.31;2050034;29;20190;-82
2021/09/26 02:54:21;;;;;;;46.58;39.17;;;;;;;14.06;100.00;99455.53;2050118;29;20201;-82
2021/09/26 02:55:22;;;;;;;47.88;39.30;;;;;;;14.01;100.00;99455.69;2050309;29;20195;-82
2021/09/26 02:56:25;;;;;;;48.03;39.33;;;;;;;13.97;100.00;99455.50;2049767;29;20206;-82
2021/09/26 02:57:26;;;;;;;50.15;39.47;;;;;;;13.94;100.00;99455.34;2049398;29;20276;-82
2021/09/26 02:58:28;;;;;;;51.70;40.33;;;;;;;13.91;100.00;99458.63;2049677;28;20269;-81
2021/09/26 02:59:29;;;;;;;49.85;40.95;;;;;;;13.85;100.00;99458.75;2049396;29;20500;-82
2021/09/26 03:00:34;;;;;;;54.13;40.83;;;;;;;13.83;100.00;99462.84;2041572;29;20214;-81
2021/09/26 03:01:36;;;;;;;51.65;41.25;;;;;;;13.80;100.00;99466.13;2042095;29;20233;-83
2021/09/26 03:02:39;;;;;;;51.28;39.25;;;;;;;13.75;100.00;99474.31;2041666;29;20235;-82
2021/09/26 03:03:40;;;;;;;51.67;39.80;;;;;;;13.72;100.00;99464.19;2041615;29;20202;-82
2021/09/26 03:04:44;;;;;;;49.47;39.87;;;;;;;13.69;100.00;99478.22;2049742;29;20249;-82
2021/09/26 03:05:46;;;;;;;51.15;40.08;;;;;;;13.68;100.00;99479.31;2049500;29;20190;-82
2021/09/26 03:06:48;;;;;;;48.22;40.60;;;;;;;13.63;100.00;99474.06;2049721;29;20191;-82
2021/09/26 03:07:48;;;;;;;48.95;41.00;;;;;;;13.62;100.00;99477.84;2049486;29;20225;-82
2021/09/26 03:08:50;;;;;;;57.90;43.00;;;;;;;13.60;100.00;99483.53;2049295;29;20253;-82
2021/09/26 03:09:51;;;;;;;54.10;42.08;;;;;;;13.57;100.00;99473.44;2041532;29;20242;-82
2021/09/26 03:10:55;;;;;;;53.50;41.30;;;;;;;13.55;100.00;99479.09;2049311;29;20668;-82
2021/09/26 03:11:55;;;;;;;51.17;41.35;;;;;;;13.53;100.00;99477.78;2049464;29;20194;-82
2021/09/26 03:12:57;;;;;;;48.60;40.13;;;;;;;13.51;100.00;99483.47;2049421;29;20294;-82
2021/09/26 03:13:58;;;;;;;52.22;39.88;;;;;;;13.48;100.00;99472.56;2041430;29;20204;-82
2021/09/26 03:15:00;;;;;;;54.60;40.20;;;;;;;13.47;100.00;99479.81;2050086;29;20274;-82
2021/09/26 03:16:07;;;;;;;46.28;38.70;;;;;;;13.44;100.00;99485.78;2049998;28;20195;-82
2021/09/26 03:17:09;;;;;;;51.03;41.08;;;;;;;13.40;100.00;99479.44;2049626;29;20198;-82
2021/09/26 03:18:10;;;;;;;52.47;39.85;;;;;;;13.39;100.00;99477.88;2049450;29;20186;-82
2021/09/26 03:19:12;;;;;;;46.20;38.50;;;;;;;13.39;100.00;99490.47;2050200;29;20214;-82
2021/09/26 03:20:14;;;;;;;48.58;39.63;;;;;;;13.37;100.00;99485.41;2049401;29;20202;-82
2021/09/26 03:21:16;;;;;;;48.45;39.42;;;;;;;13.37;100.00;99489.97;2049410;29;20186;-82
2021/09/26 03:22:17;;;;;;;54.45;40.90;;;;;;;13.37;100.00;99484.59;2049478;29;20241;-82
2021/09/26 03:23:23;;;;;;;57.72;43.38;;;;;;;13.35;100.00;99484.91;2049395;29;20700;-82
2021/09/26 03:24:24;;;;;;;51.13;40.88;;;;;;;13.37;100.00;99484.59;2048976;29;20341;-82
2021/09/26 03:25:26;;;;;;;47.50;40.83;;;;;;;13.34;100.00;99483.34;2049636;29;20198;-82
2021/09/26 03:26:27;;;;;;;50.10;40.53;;;;;;;13.35;100.00;99481.44;2049892;28;20724;-82
2021/09/26 03:27:28;;;;;;;53.60;40.90;;;;;;;13.35;100.00;99484.13;2050068;29;20607;-82
2021/09/26 03:28:29;;;;;;;54.33;40.75;;;;;;;13.33;100.00;99484.44;2049208;29;20692;-82
2021/09/26 03:29:32;;;;;;;57.00;41.27;;;;;;;13.34;100.00;99479.88;2041399;29;20596;-82
2021/09/26 03:30:34;;;;;;;47.63;39.40;;;;;;;13.32;100.00;99474.81;2049427;28;20634;-82
2021/09/26 03:31:35;;;;;;;49.47;39.92;;;;;;;13.32;100.00;99466.78;2057332;28;20192;-82
2021/09/26 03:32:37;;;;;;;49.43;40.20;;;;;;;13.34;100.00;99480.66;2049900;29;20254;-82
2021/09/26 03:33:38;;;;;;;49.25;39.72;;;;;;;13.31;100.00;99475.13;2050103;29;20539;-82
2021/09/26 03:34:40;;;;;;;45.77;38.37;;;;;;;13.31;100.00;99475.13;2050029;29;20194;-82
2021/09/26 03:35:42;;;;;;;49.42;40.70;;;;;;;13.26;100.00;99473.34;2050314;29;20807;-82
2021/09/26 03:36:44;;;;;;;46.80;38.58;;;;;;;13.24;100.00;99479.00;2049183;29;20206;-82
2021/09/26 03:37:46;;;;;;;50.55;39.25;;;;;;;13.24;100.00;99480.91;2048443;28;20230;-82
2021/09/26 03:38:48;;;;;;;50.67;38.88;;;;;;;13.21;100.00;99481.50;2041416;29;20199;-82
2021/09/26 03:39:51;;;;;;;48.85;38.75;;;;;;;13.19;100.00;99476.44;2049317;29;20194;-82
2021/09/26 03:40:54;;;;;;;46.50;39.25;;;;;;;13.19;100.00;99480.97;2050027;29;20589;-82
2021/09/26 03:41:55;;;;;;;51.65;40.53;;;;;;;13.16;100.00;99482.38;2049175;29;20198;-82
2021/09/26 03:42:57;;;;;;;52.70;40.43;;;;;;;13.19;100.00;99486.31;2041292;29;20302;-82
2021/09/26 03:43:57;;;;;;;53.83;40.35;;;;;;;13.17;100.00;99485.84;2049223;29;20198;-82
2021/09/26 03:45:00;;;;;;;49.93;39.40;;;;;;;13.17;100.00;99480.47;2049391;29;20241;-82
2021/09/26 03:46:01;;;;;;;46.08;37.85;;;;;;;13.16;100.00;99484.25;2049112;29;20206;-82
2021/09/26 03:47:06;;;;;;;45.03;37.80;;;;;;;13.16;100.00;99484.25;2049257;29;20229;-82
2021/09/26 03:48:08;;;;;;;51.05;40.10;;;;;;;13.15;100.00;99485.34;2049180;29;20205;-82
2021/09/26 03:49:09;;;;;;;52.75;40.13;;;;;;;13.13;100.00;99496.38;2049436;29;20182;-82
2021/09/26 03:50:12;;;;;;;50.50;39.20;;;;;;;13.13;100.00;99484.88;2049125;29;20209;-82
2021/09/26 03:51:14;;;;;;;46.80;39.47;;;;;;;13.12;100.00;99488.63;2049359;29;20672;-82
2021/09/26 03:52:16;;;;;;;49.70;39.30;;;;;;;13.13;100.00;99490.22;2049818;29;20221;-82
2021/09/26 03:53:17;;;;;;;48.30;39.90;;;;;;;13.12;100.00;99483.25;2049895;29;20241;-82
2021/09/26 03:54:20;;;;;;;50.15;39.40;;;;;;;13.10;100.00;99485.47;2049999;29;20201;-82
2021/09/26 03:55:21;;;;;;;56.75;42.08;;;;;;;13.10;100.00;99486.25;2049792;29;20221;-82
2021/09/26 03:56:23;;;;;;;51.13;40.97;;;;;;;13.10;100.00;99493.50;2049071;29;20606;-82
2021/09/26 03:57:25;;;;;;;53.92;41.42;;;;;;;13.11;100.00;99492.41;2049216;29;20198;-81
2021/09/26 03:58:26;;;;;;;49.10;39.63;;;;;;;13.11;100.00;99495.06;2049637;28;20214;-82
2021/09/26 03:59:27;;;;;;;49.03;40.05;;;;;;;13.09;100.00;99491.91;2049142;29;20199;-82
2021/09/26 04:00:29;;;;;;;50.80;40.40;;;;;;;13.10;100.00;99490.81;2041225;29;20238;-82
2021/09/26 04:01:30;;;;;;;48.92;40.08;;;;;;;13.10;100.00;99490.81;2049118;29;20210;-82
2021/09/26 04:02:31;;;;;;;48.97;40.07;;;;;;;13.10;100.00;99488.13;2040745;29;20266;-82
2021/09/26 04:03:32;;;;;;;48.70;40.00;;;;;;;13.10;100.00;99493.50;2049232;29;20573;-82
2021/09/26 04:04:34;;;;;;;57.03;40.37;;;;;;;13.10;100.00;99496.19;2049882;29;20289;-82
2021/09/26 04:05:36;;;;;;;47.42;39.72;;;;;;;13.10;100.00;99498.84;2049857;29;20226;-82
2021/09/26 04:06:41;;;;;;;48.80;39.55;;;;;;;13.10;100.00;99491.59;2048988;29;20225;-82
2021/09/26 04:07:42;;;;;;;51.95;40.88;;;;;;;13.08;100.00;99484.97;2041373;29;20225;-82
2021/09/26 04:08:44;;;;;;;53.10;41.10;;;;;;;13.10;100.00;99490.81;2049311;29;20190;-82
2021/09/26 04:09:44;;;;;;;54.50;39.13;;;;;;;13.12;100.00;99491.31;2049737;28;20249;-82
2021/09/26 04:10:46;;;;;;;48.07;38.83;;;;;;;13.11;100.00;99485.16;2049024;29;20209;-81
2021/09/26 04:11:47;;;;;;;50.70;41.75;;;;;;;13.14;100.00;99491.81;2049385;29;20201;-82
2021/09/26 04:12:49;;;;;;;56.80;41.83;;;;;;;13.15;100.00;99493.41;2048943;29;20312;-82
2021/09/26 04:13:50;;;;;;;54.65;40.78;;;;;;;13.16;100.00;99489.63;2049263;29;20197;-81
2021/09/26 04:14:52;;;;;;;52.33;40.10;;;;;;;13.17;100.00;99486.63;2049716;29;20218;-82
2021/09/26 04:15:53;;;;;;;50.92;39.78;;;;;;;13.17;100.00;99492.00;2048994;29;20245;-82
2021/09/26 04:16:54;;;;;;;50.17;39.80;;;;;;;13.18;100.00;99495.47;2049280;29;20222;-82
2021/09/26 04:17:55;;;;;;;52.28;39.97;;;;;;;13.17;100.00;99497.34;2049003;29;20201;-82
2021/09/26 04:18:57;;;;;;;56.83;41.10;;;;;;;13.15;100.00;99491.50;2049035;29;20290;-82
2021/09/26 04:19:58;;;;;;;57.50;42.78;;;;;;;13.17;100.00;99493.88;2049220;29;20264;-81
2021/09/26 04:21:00;;;;;;;55.83;41.53;;;;;;;13.16;100.00;99489.63;2049145;29;20245;-82
2021/09/26 04:22:04;;;;;;;52.53;40.47;;;;;;;13.16;100.00;99489.63;2048971;29;20214;-82
2021/09/26 04:23:05;;;;;;;48.42;40.55;;;;;;;13.16;100.00;99481.59;2041496;29;20206;-81
2021/09/26 04:24:07;;;;;;;51.33;39.57;;;;;;;13.14;100.00;99483.78;2049140;29;20654;-82
2021/09/26 04:25:08;;;;;;;52.38;40.30;;;;;;;13.15;100.00;99482.69;2049825;28;20226;-82
2021/09/26 04:26:11;;;;;;;48.85;39.08;;;;;;;13.14;100.00;99486.47;2049709;29;20599;-82
2021/09/26 04:27:11;;;;;;;46.35;38.63;;;;;;;13.12;100.00;99489.44;2048993;29;20210;-82
2021/09/26 04:28:13;;;;;;;52.33;39.83;;;;;;;13.13;100.00;99484.88;2049287;29;20693;-81
2021/09/26 04:29:17;;;;;;;48.55;39.25;;;;;;;13.14;100.00;99486.47;2049695;28;20740;-82
2021/09/26 04:30:18;;;;;;;45.75;39.65;;;;;;;13.14;100.00;99489.13;2049694;29;20201;-82
2021/09/26 04:31:20;;;;;;;54.07;41.07;;;;;;;13.14;100.00;99491.81;2049429;29;20661;-82
2021/09/26 04:32:21;;;;;;;54.35;40.70;;;;;;;13.17;100.00;99493.88;2041064;29;20733;-82
2021/09/26 04:33:23;;;;;;;54.17;42.10;;;;;;;13.18;100.00;99498.16;2049163;29;20237;-82
2021/09/26 04:34:26;;;;;;;51.83;41.60;;;;;;;13.22;100.00;99494.59;2048986;29;20205;-82
2021/09/26 04:35:28;;;;;;;55.33;41.10;;;;;;;13.27;100.00;99499.81;2049325;29;20250;-82
2021/09/26 04:36:31;;;;;;;53.95;41.25;;;;;;;13.31;100.00;99502.72;2049250;29;20218;-82
2021/09/26 04:37:34;;;;;;;50.67;40.50;;;;;;;13.33;100.00;99500.50;2049144;29;20206;-82
2021/09/26 04:38:35;;;;;;;56.60;41.80;;;;;;;13.36;100.00;99499.91;2049937;29;20226;-82
2021/09/26 04:39:36;;;;;;;52.13;40.90;;;;;;;13.39;100.00;99499.31;2049730;29;20658;-82
2021/09/26 04:40:40;;;;;;;50.80;41.03;;;;;;;13.39;100.00;99496.63;2049015;29;20697;-82
2021/09/26 04:41:42;;;;;;;49.45;41.08;;;;;;;13.42;100.00;99503.25;2049459;29;20278;-81
2021/09/26 04:42:43;;;;;;;51.97;40.60;;;;;;;13.47;100.00;99505.84;2049597;29;20195;-82
2021/09/26 04:43:44;;;;;;;51.23;40.57;;;;;;;13.49;100.00;99501.75;2049788;29;20187;-82
2021/09/26 04:44:45;;;;;;;52.25;41.05;;;;;;;13.47;100.00;99506.63;2049602;29;20193;-82
2021/09/26 04:45:47;;;;;;;49.00;40.30;;;;;;;13.50;100.00;99506.00;2049018;29;20230;-81
2021/09/26 04:46:48;;;;;;;50.92;40.90;;;;;;;13.50;100.00;99506.00;2049073;29;20225;-82